createdAt,value
2023-05-09T00:02:46.026Z,1.58
2023-05-09T00:05:31.805Z,0.40
2023-05-09T00:08:17.212Z,1.15
2023-05-09T00:11:02.534Z,0.55
2023-05-09T00:13:49.284Z,1.42
2023-05-09T00:16:36.905Z,0.60
2023-05-09T00:19:22.393Z,0.70
2023-05-09T00:22:09.309Z,1.88
2023-05-09T00:24:55.749Z,0.93
2023-05-09T00:27:41.277Z,0.80
2023-05-09T00:30:27.470Z,0.43
2023-05-09T00:33:12.935Z,1.50
2023-05-09T00:35:58.278Z,0.82
2023-05-09T00:38:43.891Z,0.43
2023-05-09T00:41:29.494Z,0.88
2023-05-09T00:44:15.207Z,0.45
2023-05-09T00:47:00.999Z,0.32
2023-05-09T00:49:46.765Z,1.58
2023-05-09T00:52:33.493Z,0.75
2023-05-09T00:55:19.522Z,1.38
2023-05-09T00:58:04.891Z,0.75
2023-05-09T01:00:50.743Z,0.52
2023-05-09T01:03:36.833Z,1.40
2023-05-09T01:06:41.894Z,1.38
2023-05-09T01:09:42.488Z,1.33
2023-05-09T01:12:49.883Z,0.82
2023-05-09T01:15:55.612Z,1.58
2023-05-09T01:18:50.418Z,1.00
2023-05-09T01:21:36.848Z,0.65
2023-05-09T01:24:44.822Z,0.65
2023-05-09T01:27:38.928Z,1.00
2023-05-09T01:30:25.616Z,1.35
2023-05-09T01:33:13.795Z,1.17
2023-05-09T01:36:08.544Z,0.35
2023-05-09T01:38:54.684Z,0.85
2023-05-09T01:41:40.732Z,0.70
2023-05-09T01:44:26.852Z,0.73
2023-05-09T01:47:12.230Z,0.65
2023-05-09T01:49:57.854Z,0.30
2023-05-09T01:52:44.072Z,1.02
2023-05-09T01:55:32.278Z,1.05
2023-05-09T01:58:18.685Z,0.75
2023-05-09T02:01:04.454Z,0.98
2023-05-09T02:03:52.735Z,1.58
2023-05-09T02:06:38.630Z,3.30
2023-05-09T02:09:24.227Z,2.08
2023-05-09T02:12:09.504Z,0.65
2023-05-09T02:14:55.318Z,1.92
2023-05-09T02:17:40.594Z,3.22
2023-05-09T02:20:26.428Z,2.63
2023-05-09T02:23:12.194Z,2.42
2023-05-09T02:25:58.797Z,2.90
2023-05-09T02:28:44.797Z,2.13
2023-05-09T02:31:30.974Z,2.33
2023-05-09T02:34:17.883Z,1.27
2023-05-09T02:37:04.287Z,2.65
2023-05-09T02:39:49.961Z,3.00
2023-05-09T02:42:35.668Z,2.95
2023-05-09T02:45:21.353Z,1.17
2023-05-09T02:48:08.741Z,2.85
2023-05-09T02:50:54.777Z,2.78
2023-05-09T02:53:40.416Z,1.80
2023-05-09T02:56:26.160Z,2.83
2023-05-09T02:59:11.692Z,2.25
2023-05-09T03:01:57.342Z,3.65
2023-05-09T03:04:43.085Z,1.45
2023-05-09T03:07:28.530Z,2.05
2023-05-09T03:10:13.767Z,2.20
2023-05-09T03:13:01.139Z,3.72
2023-05-09T03:15:46.762Z,2.80
2023-05-09T03:18:32.393Z,3.92
2023-05-09T03:21:18.308Z,1.48
2023-05-09T03:24:04.846Z,1.92
2023-05-09T03:26:50.160Z,2.05
2023-05-09T03:29:35.851Z,1.55
2023-05-09T03:32:21.649Z,3.22
2023-05-09T03:35:07.965Z,1.35
2023-05-09T03:37:53.488Z,1.73
2023-05-09T03:40:39.148Z,3.75
2023-05-09T03:43:27.869Z,4.95
2023-05-09T03:46:13.250Z,2.65
2023-05-09T03:48:59.789Z,1.92
2023-05-09T03:51:45.258Z,2.63
2023-05-09T03:54:33.746Z,3.67
2023-05-09T03:57:19.846Z,3.40
2023-05-09T04:00:10.401Z,2.53
2023-05-09T04:03:09.857Z,2.78
2023-05-09T04:05:59.298Z,2.28
2023-05-09T04:08:50.507Z,3.53
2023-05-09T04:11:36.282Z,4.03
2023-05-09T04:14:24.511Z,1.80
2023-05-09T04:17:10.472Z,2.35
2023-05-09T04:19:56.471Z,2.40
2023-05-09T04:22:41.847Z,1.05
2023-05-09T04:25:27.739Z,2.97
2023-05-09T04:28:13.058Z,4.13
2023-05-09T04:30:58.758Z,1.13
2023-05-09T04:33:46.977Z,2.05
2023-05-09T04:36:34.049Z,1.65
2023-05-09T04:39:19.745Z,1.63
2023-05-09T04:42:14.094Z,1.88
2023-05-09T04:45:00.577Z,3.03
2023-05-09T04:47:46.719Z,0.95
2023-05-09T04:50:32.162Z,2.05
2023-05-09T04:53:17.881Z,3.67
2023-05-09T04:56:05.952Z,2.55
2023-05-09T04:58:52.892Z,1.67
2023-05-09T05:01:38.631Z,1.30
2023-05-09T05:04:24.356Z,1.10
2023-05-09T05:07:09.621Z,3.03
2023-05-09T05:09:55.189Z,2.67
2023-05-09T05:12:41.344Z,1.55
2023-05-09T05:15:29.450Z,1.48
2023-05-09T05:18:15.505Z,2.28
2023-05-09T05:21:01.118Z,2.03
2023-05-09T05:23:46.413Z,1.55
2023-05-09T05:26:33.653Z,1.25
2023-05-09T05:29:20.533Z,1.27
2023-05-09T05:32:05.945Z,1.80
2023-05-09T05:34:51.235Z,3.83
2023-05-09T05:37:41.107Z,1.85
2023-05-09T05:40:27.029Z,1.33
2023-05-09T05:43:14.030Z,1.25
2023-05-09T05:45:59.498Z,1.73
2023-05-09T05:48:47.156Z,0.55
2023-05-09T05:51:32.810Z,0.77
2023-05-09T05:54:19.300Z,2.45
2023-05-09T05:57:05.554Z,2.40
2023-05-09T05:59:51.566Z,2.47
2023-05-09T06:02:38.128Z,2.75
2023-05-09T06:05:23.834Z,1.33
2023-05-09T06:08:10.331Z,2.25
2023-05-09T06:10:55.740Z,0.40
2023-05-09T06:13:40.975Z,0.88
2023-05-09T06:16:28.038Z,1.67
2023-05-09T06:19:13.611Z,1.77
2023-05-09T06:21:59.060Z,1.65
2023-05-09T06:24:45.063Z,1.85
2023-05-09T06:27:30.608Z,1.63
2023-05-09T06:30:25.304Z,1.45
2023-05-09T06:33:11.734Z,1.10
2023-05-09T06:35:57.011Z,1.33
2023-05-09T06:38:42.583Z,0.73
2023-05-09T06:41:28.226Z,1.00
2023-05-09T06:44:13.723Z,0.55
2023-05-09T06:46:59.498Z,4.80
2023-05-09T06:49:45.031Z,1.13
2023-05-09T06:52:30.793Z,2.17
2023-05-09T06:55:16.541Z,1.30
2023-05-09T06:58:01.967Z,1.95
2023-05-09T07:00:47.980Z,1.63
2023-05-09T07:03:33.590Z,0.85
2023-05-09T07:06:19.275Z,1.75
2023-05-09T07:09:04.826Z,2.00
2023-05-09T07:11:50.422Z,2.70
2023-05-09T07:14:36.135Z,1.35
2023-05-09T07:17:24.004Z,1.75
2023-05-09T07:20:10.201Z,1.58
2023-05-09T07:22:55.629Z,2.28
2023-05-09T07:25:40.940Z,1.08
2023-05-09T07:28:26.830Z,0.40
2023-05-09T07:31:12.257Z,2.05
2023-05-09T07:33:57.831Z,2.05
2023-05-09T07:36:43.286Z,1.25
2023-05-09T07:39:28.487Z,2.38
2023-05-09T07:42:14.290Z,3.03
2023-05-09T07:45:00.448Z,2.72
2023-05-09T07:47:46.333Z,1.33
2023-05-09T07:50:32.220Z,1.73
2023-05-09T07:53:17.670Z,2.15
2023-05-09T07:56:03.361Z,2.58
2023-05-09T07:58:49.041Z,0.93
2023-05-09T08:01:34.959Z,1.88
2023-05-09T08:04:20.471Z,2.95
2023-05-09T08:07:07.345Z,2.10
2023-05-09T08:09:53.033Z,2.38
2023-05-09T08:12:38.851Z,1.05
2023-05-09T08:15:24.506Z,1.83
2023-05-09T08:18:10.302Z,1.52
2023-05-09T08:20:55.780Z,0.88
2023-05-09T08:23:41.408Z,1.40
2023-05-09T08:26:27.370Z,0.98
2023-05-09T08:29:12.871Z,2.15
2023-05-09T08:31:58.581Z,0.90
2023-05-09T08:34:44.240Z,0.65
2023-05-09T08:37:29.662Z,1.55
2023-05-09T08:40:15.594Z,0.57
2023-05-09T08:43:01.353Z,0.90
2023-05-09T08:45:51.521Z,1.42
2023-05-09T08:48:37.784Z,0.55
2023-05-09T08:51:23.639Z,1.00
2023-05-09T08:54:09.894Z,0.70
2023-05-09T08:56:55.436Z,1.23
2023-05-09T08:59:40.932Z,0.50
2023-05-09T09:02:26.448Z,1.00
2023-05-09T09:05:23.790Z,0.75
2023-05-09T09:08:14.843Z,0.93
2023-05-09T09:11:00.700Z,0.88
2023-05-09T09:13:46.748Z,0.52
2023-05-09T09:16:33.463Z,0.98
2023-05-09T09:19:20.160Z,0.45
2023-05-09T09:22:06.167Z,0.50
2023-05-09T09:24:51.831Z,0.40
2023-05-09T09:27:37.260Z,1.33
2023-05-09T09:30:24.774Z,0.30
2023-05-09T09:33:11.197Z,1.13
2023-05-09T09:35:57.101Z,1.55
2023-05-09T09:38:43.959Z,0.85
2023-05-09T09:41:33.522Z,0.63
2023-05-09T09:44:20.964Z,0.57
2023-05-09T09:47:09.958Z,0.50
2023-05-09T09:49:55.843Z,0.30
2023-05-09T09:52:54.594Z,0.73
2023-05-09T09:55:49.950Z,0.38
2023-05-09T09:58:35.949Z,0.60
2023-05-09T10:01:21.492Z,0.40
2023-05-09T10:04:07.078Z,1.02
2023-05-09T10:07:05.221Z,0.30
2023-05-09T10:09:51.042Z,1.02
2023-05-09T10:12:40.823Z,1.27
2023-05-09T10:15:27.738Z,0.77
2023-05-09T10:18:18.501Z,0.93
2023-05-09T10:21:05.419Z,0.85
2023-05-09T10:23:52.449Z,1.58
2023-05-09T10:26:38.411Z,0.65
2023-05-09T10:29:25.432Z,0.40
2023-05-09T10:32:20.878Z,0.60
2023-05-09T10:35:07.544Z,0.40
2023-05-09T10:37:56.718Z,1.58
2023-05-09T10:40:42.188Z,0.77
2023-05-09T10:43:28.214Z,0.70
2023-05-09T10:46:14.111Z,0.70
2023-05-09T10:48:59.587Z,0.20
2023-05-09T10:51:45.227Z,1.10
2023-05-09T10:54:33.524Z,1.00
2023-05-09T10:57:19.864Z,2.10
2023-05-09T11:00:06.189Z,0.30
2023-05-09T11:03:21.454Z,0.35
2023-05-09T11:06:07.332Z,0.73
2023-05-09T11:08:54.404Z,0.50
2023-05-09T11:11:51.607Z,0.93
2023-05-09T11:14:46.993Z,0.50
2023-05-09T11:17:32.822Z,0.60
2023-05-09T11:20:18.000Z,0.57
2023-05-09T11:23:07.006Z,0.52
2023-05-09T11:25:53.025Z,0.57
2023-05-09T11:28:38.985Z,0.90
2023-05-09T11:31:24.628Z,0.95
2023-05-09T11:34:10.429Z,0.68
2023-05-09T11:37:07.952Z,0.77
2023-05-09T11:40:01.594Z,0.52
2023-05-09T11:42:50.009Z,0.63
2023-05-09T11:45:35.664Z,1.05
2023-05-09T11:48:22.652Z,0.52
2023-05-09T11:51:08.185Z,1.05
2023-05-09T11:53:54.262Z,0.60
2023-05-09T11:56:41.209Z,0.68
2023-05-09T11:59:27.474Z,0.60
2023-05-09T12:02:13.330Z,0.90
2023-05-09T12:05:07.287Z,0.73
2023-05-09T12:07:52.886Z,0.82
2023-05-09T12:10:39.263Z,0.30
2023-05-09T12:13:24.686Z,0.35
2023-05-09T12:16:10.505Z,0.93
2023-05-09T12:18:55.841Z,0.40
2023-05-09T12:21:41.378Z,0.45
2023-05-09T12:24:27.537Z,1.15
2023-05-09T12:27:13.161Z,0.43
2023-05-09T12:29:58.554Z,0.70
2023-05-09T12:32:46.288Z,0.60
2023-05-09T12:35:32.345Z,0.60
2023-05-09T12:38:22.711Z,1.02
2023-05-09T12:41:21.906Z,0.50
2023-05-09T12:44:26.263Z,1.10
2023-05-09T12:47:12.686Z,0.57
2023-05-09T12:50:08.366Z,1.05
2023-05-09T12:53:02.682Z,1.50
2023-05-09T12:55:49.188Z,0.52
2023-05-09T12:58:34.858Z,0.73
2023-05-09T13:01:24.067Z,0.60
2023-05-09T13:04:12.772Z,0.47
2023-05-09T13:07:00.103Z,0.20
2023-05-09T13:09:57.078Z,0.95
2023-05-09T13:12:48.218Z,0.73
2023-05-09T13:15:33.948Z,0.30
2023-05-09T13:18:19.507Z,0.45
2023-05-09T13:21:05.138Z,1.20
2023-05-09T13:23:51.360Z,0.40
2023-05-09T13:26:36.664Z,0.75
2023-05-09T13:29:22.132Z,0.65
2023-05-09T13:32:07.576Z,0.40
2023-05-09T13:34:52.929Z,0.85
2023-05-09T13:37:38.379Z,0.57
2023-05-09T13:40:23.920Z,0.40
2023-05-09T13:43:09.220Z,0.40
2023-05-09T13:45:54.832Z,0.35
2023-05-09T13:48:40.385Z,0.57
2023-05-09T13:51:25.972Z,1.23
2023-05-09T13:54:13.232Z,0.52
2023-05-09T13:57:01.452Z,0.35
2023-05-09T13:59:46.805Z,0.35
2023-05-09T14:02:32.447Z,0.60
2023-05-09T14:05:17.888Z,0.93
2023-05-09T14:08:03.507Z,1.17
2023-05-09T14:10:48.927Z,1.48
2023-05-09T14:13:34.468Z,0.20
2023-05-09T14:16:21.152Z,0.50
2023-05-09T14:19:07.274Z,0.30
2023-05-09T14:21:52.860Z,1.05
2023-05-09T14:24:38.558Z,0.43
2023-05-09T14:27:25.247Z,0.47
2023-05-09T14:30:11.434Z,0.30
2023-05-09T14:32:56.831Z,0.28
2023-05-09T14:35:42.079Z,0.90
2023-05-09T14:38:27.729Z,0.40
2023-05-09T14:41:16.478Z,0.20
2023-05-09T14:44:01.859Z,0.60
2023-05-09T14:46:48.426Z,0.20
2023-05-09T14:49:34.168Z,0.20
2023-05-09T14:52:19.513Z,0.60
2023-05-09T14:55:06.365Z,0.25
2023-05-09T14:57:51.998Z,0.30
2023-05-09T15:00:37.242Z,0.30
2023-05-09T15:03:22.969Z,0.35
2023-05-09T15:06:08.691Z,0.55
2023-05-09T15:08:54.122Z,0.57
2023-05-09T15:11:47.507Z,0.40
2023-05-09T15:14:34.595Z,0.20
2023-05-09T15:17:20.649Z,0.60
2023-05-09T15:20:07.151Z,0.47
2023-05-09T15:22:52.506Z,0.20
2023-05-09T15:25:37.937Z,0.30
2023-05-09T15:28:23.285Z,0.85
2023-05-09T15:31:08.604Z,0.32
2023-05-09T15:33:54.259Z,0.30
2023-05-09T15:36:39.683Z,0.80
2023-05-09T15:39:25.154Z,0.20
2023-05-09T15:42:12.463Z,0.22
2023-05-09T15:44:57.806Z,0.20
2023-05-09T15:47:42.960Z,0.20
2023-05-09T15:50:29.056Z,0.20
2023-05-09T15:53:16.237Z,0.20
2023-05-09T15:56:01.876Z,0.20
2023-05-09T15:58:48.151Z,1.20
2023-05-09T16:01:35.382Z,0.55
2023-05-09T16:04:20.966Z,0.20
2023-05-09T16:07:06.340Z,0.20
2023-05-09T16:09:51.951Z,0.50
2023-05-09T16:12:37.241Z,0.20
2023-05-09T16:15:23.317Z,0.20
2023-05-09T16:18:08.638Z,0.75
2023-05-09T16:20:54.231Z,0.30
2023-05-09T16:23:42.353Z,0.30
2023-05-09T16:26:28.029Z,0.35
2023-05-09T16:29:13.802Z,0.22
2023-05-09T16:31:59.095Z,0.20
2023-05-09T16:34:44.602Z,0.20
2023-05-09T16:37:30.067Z,0.20
2023-05-09T16:40:15.900Z,0.20
2023-05-09T16:43:01.745Z,0.52
2023-05-09T16:45:48.189Z,0.20
2023-05-09T16:48:33.612Z,0.20
2023-05-09T16:51:19.223Z,0.35
2023-05-09T16:54:04.594Z,0.28
2023-05-09T16:56:50.113Z,0.30
2023-05-09T16:59:35.468Z,0.50
2023-05-09T17:02:20.910Z,0.20
2023-05-09T17:05:06.892Z,0.30
2023-05-09T17:07:52.522Z,0.20
2023-05-09T17:10:39.467Z,0.20
2023-05-09T17:13:26.315Z,0.20
2023-05-09T17:16:11.565Z,0.55
2023-05-09T17:18:56.822Z,0.32
2023-05-09T17:21:43.380Z,0.30
2023-05-09T17:24:29.522Z,0.20
2023-05-09T17:27:15.143Z,0.30
2023-05-09T17:30:00.996Z,0.13
2023-05-09T17:32:46.297Z,0.20
2023-05-09T17:35:32.001Z,0.20
2023-05-09T17:38:17.629Z,0.68
2023-05-09T17:41:02.820Z,0.20
2023-05-09T17:43:48.460Z,0.20
2023-05-09T17:46:34.060Z,0.20
2023-05-09T17:49:19.620Z,0.17
2023-05-09T17:52:05.433Z,0.20
2023-05-09T17:54:53.461Z,0.20
2023-05-09T17:57:38.982Z,0.40
2023-05-09T18:00:24.379Z,0.25
2023-05-09T18:03:09.794Z,0.20
2023-05-09T18:05:55.320Z,0.20
2023-05-09T18:08:40.800Z,0.30
2023-05-09T18:11:27.050Z,0.28
2023-05-09T18:14:13.137Z,0.20
2023-05-09T18:16:58.452Z,0.20
2023-05-09T18:19:43.832Z,0.40
2023-05-09T18:22:29.392Z,0.20
2023-05-09T18:25:15.014Z,0.30
2023-05-09T18:28:01.388Z,1.52
2023-05-09T18:30:46.920Z,0.40
2023-05-09T18:33:36.848Z,0.35
2023-05-09T18:36:22.556Z,0.25
2023-05-09T18:39:09.021Z,0.20
2023-05-09T18:41:54.856Z,0.30
2023-05-09T18:44:40.179Z,0.20
2023-05-09T18:47:25.574Z,0.20
2023-05-09T18:50:13.610Z,0.30
2023-05-09T18:52:59.777Z,0.20
2023-05-09T18:55:45.440Z,0.32
2023-05-09T18:58:30.974Z,0.20
2023-05-09T19:01:16.876Z,0.30
2023-05-09T19:04:02.776Z,0.25
2023-05-09T19:06:48.451Z,0.50
2023-05-09T19:09:34.028Z,0.20
2023-05-09T19:12:19.751Z,0.20
2023-05-09T19:15:05.916Z,0.77
2023-05-09T19:17:51.689Z,0.80
2023-05-09T19:20:37.754Z,1.30
2023-05-09T19:23:23.167Z,0.20
2023-05-09T19:26:09.990Z,0.20
2023-05-09T19:28:55.703Z,0.30
2023-05-09T19:31:40.920Z,0.28
2023-05-09T19:34:27.428Z,0.20
2023-05-09T19:37:13.017Z,0.28
2023-05-09T19:39:58.457Z,0.35
2023-05-09T19:42:43.725Z,0.20
2023-05-09T19:45:29.198Z,0.30
2023-05-09T19:48:17.652Z,0.52
2023-05-09T19:51:04.644Z,0.20
2023-05-09T19:53:50.187Z,0.30
2023-05-09T19:56:35.791Z,0.28
2023-05-09T19:59:21.303Z,0.20
2023-05-09T20:02:07.103Z,0.38
2023-05-09T20:04:54.268Z,0.60
2023-05-09T20:07:39.782Z,0.40
2023-05-09T20:10:25.524Z,0.30
2023-05-09T20:13:11.029Z,0.30
2023-05-09T20:15:57.659Z,0.22
2023-05-09T20:18:44.185Z,0.32
2023-05-09T20:21:29.346Z,0.95
2023-05-09T20:24:15.099Z,0.40
2023-05-09T20:27:02.362Z,0.30
2023-05-09T20:29:47.935Z,0.47
2023-05-09T20:32:33.340Z,0.30
2023-05-09T20:35:18.951Z,0.75
2023-05-09T20:38:04.726Z,0.63
2023-05-09T20:40:50.949Z,0.50
2023-05-09T20:43:36.398Z,0.47
2023-05-09T20:46:21.753Z,0.65
2023-05-09T20:49:07.848Z,0.60
2023-05-09T20:51:53.026Z,0.30
2023-05-09T20:54:38.736Z,0.80
2023-05-09T20:57:24.305Z,1.05
2023-05-09T21:00:10.225Z,0.88
2023-05-09T21:02:58.459Z,0.40
2023-05-09T21:05:44.629Z,0.50
2023-05-09T21:08:30.358Z,0.50
2023-05-09T21:11:15.853Z,0.50
2023-05-09T21:14:01.166Z,0.40
2023-05-09T21:16:46.854Z,0.43
2023-05-09T21:19:32.449Z,0.70
2023-05-09T21:22:17.938Z,1.35
2023-05-09T21:25:03.408Z,0.65
2023-05-09T21:27:48.750Z,0.80
2023-05-09T21:30:34.049Z,0.93
2023-05-09T21:33:19.846Z,0.38
2023-05-09T21:36:06.325Z,0.50
2023-05-09T21:38:51.987Z,0.98
2023-05-09T21:41:38.578Z,1.02
2023-05-09T21:44:24.663Z,0.98
2023-05-09T21:47:11.766Z,0.93
2023-05-09T21:49:57.478Z,1.45
2023-05-09T21:52:42.868Z,1.02
2023-05-09T21:55:28.438Z,1.02
2023-05-09T21:58:14.092Z,0.75
2023-05-09T22:00:59.807Z,1.30
2023-05-09T22:03:45.895Z,1.00
2023-05-09T22:06:31.793Z,0.98
2023-05-09T22:09:18.022Z,1.48
2023-05-09T22:12:03.537Z,1.80
2023-05-09T22:14:56.411Z,0.93
2023-05-09T22:17:42.557Z,0.70
2023-05-09T22:20:28.044Z,1.70
2023-05-09T22:23:13.440Z,0.90
2023-05-09T22:25:59.005Z,0.93
2023-05-09T22:28:45.180Z,0.90
2023-05-09T22:31:31.284Z,0.75
2023-05-09T22:34:16.969Z,0.63
2023-05-09T22:37:02.281Z,1.92
2023-05-09T22:39:47.693Z,1.60
2023-05-09T22:42:34.864Z,0.95
2023-05-09T22:45:20.850Z,0.95
2023-05-09T22:48:06.592Z,0.82
2023-05-09T22:50:52.141Z,1.20
2023-05-09T22:53:37.759Z,2.05
2023-05-09T22:56:23.207Z,0.75
2023-05-09T22:59:08.816Z,1.33
2023-05-09T23:01:54.575Z,1.98
2023-05-09T23:04:39.866Z,0.90
2023-05-09T23:07:25.586Z,2.88
2023-05-09T23:10:11.098Z,1.08
2023-05-09T23:12:56.732Z,2.25
2023-05-09T23:15:42.094Z,2.05
2023-05-09T23:18:28.199Z,0.77
2023-05-09T23:21:13.592Z,2.42
2023-05-09T23:23:58.732Z,1.50
2023-05-09T23:26:44.532Z,1.33
2023-05-09T23:29:29.804Z,1.13
2023-05-09T23:32:15.425Z,2.47
2023-05-09T23:35:00.893Z,1.52
2023-05-09T23:37:46.400Z,1.27
2023-05-09T23:40:31.991Z,1.35
2023-05-09T23:43:18.212Z,1.70
2023-05-09T23:46:04.396Z,0.60
2023-05-09T23:48:49.625Z,1.33
2023-05-09T23:51:35.252Z,1.13
2023-05-09T23:54:21.675Z,0.88
2023-05-09T23:57:06.942Z,0.82
2023-05-09T23:59:52.472Z,0.90
